createdAt,value
2022-12-19T00:00:43.649Z,84.58
2022-12-19T00:01:43.767Z,84.58
2022-12-19T00:02:43.729Z,84.48
2022-12-19T00:03:43.675Z,84.38
2022-12-19T00:04:43.602Z,84.44
2022-12-19T00:05:43.584Z,84.44
2022-12-19T00:06:44.303Z,84.55
2022-12-19T00:07:43.579Z,84.65
2022-12-19T00:08:43.572Z,84.89
2022-12-19T00:09:43.548Z,84.96
2022-12-19T00:10:43.542Z,85.06
2022-12-19T00:11:43.539Z,85.17
2022-12-19T00:12:43.517Z,85.06
2022-12-19T00:13:43.640Z,85.06
2022-12-19T00:14:43.486Z,84.96
2022-12-19T00:15:43.475Z,84.96
2022-12-19T00:16:43.585Z,84.96
2022-12-19T00:17:43.457Z,85.06
2022-12-19T00:18:43.450Z,85.17
2022-12-19T00:19:43.431Z,85.17
2022-12-19T00:20:43.423Z,85.17
2022-12-19T00:21:43.407Z,85.27
2022-12-19T00:22:43.400Z,85.38
2022-12-19T00:23:43.411Z,85.38
2022-12-19T00:24:43.395Z,85.38
2022-12-19T00:25:43.366Z,85.38
2022-12-19T00:26:43.367Z,85.38
2022-12-19T00:27:43.340Z,85.27
2022-12-19T00:28:43.327Z,85.27
2022-12-19T00:29:43.312Z,85.38
2022-12-19T00:30:43.313Z,85.24
2022-12-19T00:31:43.466Z,85.24
2022-12-19T00:32:43.287Z,85.24
2022-12-19T00:33:43.778Z,85.34
2022-12-19T00:34:43.256Z,85.55
2022-12-19T00:35:43.252Z,85.55
2022-12-19T00:36:43.242Z,85.65
2022-12-19T00:37:49.172Z,85.65
2022-12-19T00:38:43.232Z,85.65
2022-12-19T00:39:43.199Z,85.86
2022-12-19T00:40:43.189Z,85.86
2022-12-19T00:41:43.182Z,86.07
2022-12-19T00:42:43.177Z,86.18
2022-12-19T00:43:43.158Z,86.18
2022-12-19T00:44:43.174Z,86.28
2022-12-19T00:45:43.151Z,86.38
2022-12-19T00:46:43.127Z,86.49
2022-12-19T00:47:43.109Z,86.59
2022-12-19T00:48:43.114Z,86.80
2022-12-19T00:49:43.094Z,86.80
2022-12-19T00:50:43.084Z,87.01
2022-12-19T00:51:43.073Z,87.12
2022-12-19T00:52:43.052Z,87.22
2022-12-19T00:53:43.043Z,87.22
2022-12-19T00:54:43.058Z,87.32
2022-12-19T00:55:43.023Z,87.32
2022-12-19T00:56:43.014Z,87.32
2022-12-19T00:57:43.009Z,87.43
2022-12-19T00:58:46.795Z,87.53
2022-12-19T00:59:42.977Z,87.63
2022-12-19T01:00:43.020Z,87.63
2022-12-19T01:01:43.338Z,87.63
2022-12-19T01:02:43.078Z,87.74
2022-12-19T01:03:58.046Z,87.74
2022-12-19T01:04:42.931Z,87.74
2022-12-19T01:05:42.903Z,87.74
2022-12-19T01:06:42.897Z,87.74
2022-12-19T01:07:42.911Z,87.74
2022-12-19T01:08:42.870Z,87.74
2022-12-19T01:09:42.875Z,87.74
2022-12-19T01:10:42.850Z,87.84
2022-12-19T01:11:42.839Z,87.84
2022-12-19T01:12:42.842Z,87.74
2022-12-19T01:13:42.821Z,87.84
2022-12-19T01:14:42.807Z,87.95
2022-12-19T01:15:42.793Z,87.95
2022-12-19T01:16:42.831Z,87.91
2022-12-19T01:17:44.712Z,87.81
2022-12-19T01:18:42.764Z,87.81
2022-12-19T01:19:44.589Z,87.70
2022-12-19T01:20:42.733Z,87.70
2022-12-19T01:21:42.722Z,87.81
2022-12-19T01:22:42.721Z,87.81
2022-12-19T01:23:42.701Z,87.91
2022-12-19T01:24:42.710Z,87.91
2022-12-19T01:25:45.254Z,88.01
2022-12-19T01:26:42.665Z,88.12
2022-12-19T01:27:42.706Z,88.22
2022-12-19T01:28:42.649Z,88.12
2022-12-19T01:29:47.896Z,88.12
2022-12-19T01:30:42.649Z,88.16
2022-12-19T01:31:42.840Z,88.26
2022-12-19T01:32:42.601Z,88.26
2022-12-19T01:33:42.588Z,88.37
2022-12-19T01:34:42.577Z,88.47
2022-12-19T01:35:42.571Z,88.53
2022-12-19T01:36:42.556Z,88.64
2022-12-19T01:37:42.549Z,88.64
2022-12-19T01:38:42.541Z,88.75
2022-12-19T01:39:44.854Z,88.85
2022-12-19T01:40:42.521Z,88.95
2022-12-19T01:41:42.500Z,89.06
2022-12-19T01:42:42.512Z,89.06
2022-12-19T01:43:42.490Z,89.26
2022-12-19T01:44:42.469Z,89.26
2022-12-19T01:45:45.976Z,89.37
2022-12-19T01:46:42.509Z,89.37
2022-12-19T01:47:42.424Z,89.47
2022-12-19T01:48:42.428Z,89.58
2022-12-19T01:49:42.409Z,89.68
2022-12-19T01:50:46.555Z,89.64
2022-12-19T01:51:42.404Z,89.75
2022-12-19T01:52:42.375Z,89.75
2022-12-19T01:53:48.331Z,89.85
2022-12-19T01:54:42.359Z,89.85
2022-12-19T01:55:42.392Z,89.95
2022-12-19T01:56:42.304Z,90.06
2022-12-19T01:57:42.284Z,90.16
2022-12-19T01:58:42.285Z,90.16
2022-12-19T01:59:42.275Z,90.26
2022-12-19T02:00:42.300Z,90.26
2022-12-19T02:01:50.759Z,90.37
2022-12-19T02:02:42.343Z,90.37
2022-12-19T02:03:42.220Z,90.47
2022-12-19T02:04:42.208Z,90.44
2022-12-19T02:05:42.204Z,90.54
2022-12-19T02:06:42.183Z,90.64
2022-12-19T02:07:42.195Z,90.64
2022-12-19T02:08:42.164Z,90.64
2022-12-19T02:09:42.157Z,90.64
2022-12-19T02:10:42.157Z,90.64
2022-12-19T02:11:42.132Z,90.75
2022-12-19T02:12:42.146Z,90.75
2022-12-19T02:13:42.105Z,90.75
2022-12-19T02:14:42.096Z,90.85
2022-12-19T02:15:42.091Z,90.85
2022-12-19T02:16:42.100Z,90.85
2022-12-19T02:17:42.079Z,90.85
2022-12-19T02:18:42.058Z,90.85
2022-12-19T02:19:42.059Z,90.85
2022-12-19T02:20:42.036Z,90.75
2022-12-19T02:21:42.029Z,90.64
2022-12-19T02:22:42.018Z,90.54
2022-12-19T02:23:41.991Z,90.54
2022-12-19T02:24:41.997Z,90.60
2022-12-19T02:25:41.985Z,90.50
2022-12-19T02:26:41.971Z,90.39
2022-12-19T02:27:41.961Z,90.39
2022-12-19T02:28:41.954Z,90.39
2022-12-19T02:29:41.954Z,90.29
2022-12-19T02:30:41.925Z,90.29
2022-12-19T02:31:41.958Z,90.19
2022-12-19T02:32:41.914Z,90.08
2022-12-19T02:33:41.883Z,90.08
2022-12-19T02:34:44.542Z,90.08
2022-12-19T02:35:41.862Z,89.98
2022-12-19T02:36:42.060Z,89.98
2022-12-19T02:37:41.846Z,89.98
2022-12-19T02:38:41.848Z,89.98
2022-12-19T02:39:41.823Z,89.87
2022-12-19T02:40:41.831Z,89.98
2022-12-19T02:41:41.810Z,89.87
2022-12-19T02:42:41.798Z,89.87
2022-12-19T02:43:41.798Z,89.83
2022-12-19T02:44:41.764Z,89.83
2022-12-19T02:45:41.836Z,89.73
2022-12-19T02:46:41.760Z,89.62
2022-12-19T02:47:41.742Z,89.62
2022-12-19T02:48:41.728Z,89.52
2022-12-19T02:49:41.716Z,89.41
2022-12-19T02:50:41.730Z,89.31
2022-12-19T02:51:41.701Z,89.20
2022-12-19T02:52:41.685Z,89.10
2022-12-19T02:53:41.674Z,89.00
2022-12-19T02:54:43.574Z,88.79
2022-12-19T02:55:41.663Z,88.68
2022-12-19T02:56:41.642Z,88.58
2022-12-19T02:57:41.625Z,88.58
2022-12-19T02:58:41.634Z,88.58
2022-12-19T02:59:41.607Z,88.58
2022-12-19T03:00:41.632Z,88.58
2022-12-19T03:01:41.727Z,88.58
2022-12-19T03:02:41.761Z,88.58
2022-12-19T03:03:41.608Z,88.58
2022-12-19T03:04:41.566Z,88.48
2022-12-19T03:05:41.552Z,88.37
2022-12-19T03:06:41.569Z,88.37
2022-12-19T03:07:41.516Z,88.37
2022-12-19T03:08:41.528Z,88.17
2022-12-19T03:09:41.515Z,88.06
2022-12-19T03:10:41.502Z,88.06
2022-12-19T03:11:41.471Z,87.81
2022-12-19T03:12:41.486Z,87.71
2022-12-19T03:13:41.486Z,87.60
2022-12-19T03:14:41.450Z,87.65
2022-12-19T03:15:41.440Z,87.65
2022-12-19T03:16:41.496Z,87.43
2022-12-19T03:17:41.407Z,87.43
2022-12-19T03:18:41.399Z,87.43
2022-12-19T03:19:41.409Z,87.43
2022-12-19T03:20:41.382Z,87.54
2022-12-19T03:21:41.408Z,87.54
2022-12-19T03:22:41.358Z,87.65
2022-12-19T03:23:41.347Z,87.65
2022-12-19T03:24:41.347Z,87.65
2022-12-19T03:25:41.339Z,87.65
2022-12-19T03:26:41.326Z,87.65
2022-12-19T03:27:41.312Z,87.54
2022-12-19T03:28:41.295Z,87.43
2022-12-19T03:29:41.278Z,87.43
2022-12-19T03:30:41.302Z,87.43
2022-12-19T03:31:41.284Z,87.43
2022-12-19T03:32:41.257Z,87.43
2022-12-19T03:33:41.236Z,87.43
2022-12-19T03:34:41.221Z,87.33
2022-12-19T03:35:41.232Z,87.43
2022-12-19T03:36:41.203Z,87.43
2022-12-19T03:37:41.194Z,87.43
2022-12-19T03:38:41.195Z,87.43
2022-12-19T03:39:41.168Z,87.43
2022-12-19T03:40:41.156Z,87.54
2022-12-19T03:41:41.150Z,87.65
2022-12-19T03:42:41.148Z,87.75
2022-12-19T03:43:41.134Z,87.75
2022-12-19T03:44:41.114Z,87.75
2022-12-19T03:45:41.139Z,87.85
2022-12-19T03:46:41.109Z,87.85
2022-12-19T03:47:41.100Z,87.85
2022-12-19T03:48:41.066Z,87.96
2022-12-19T03:49:41.061Z,87.96
2022-12-19T03:50:41.061Z,88.06
2022-12-19T03:51:41.037Z,88.06
2022-12-19T03:52:41.021Z,88.17
2022-12-19T03:53:41.035Z,88.27
2022-12-19T03:54:41.010Z,88.37
2022-12-19T03:55:40.986Z,88.48
2022-12-19T03:56:40.995Z,88.58
2022-12-19T03:57:40.973Z,88.68
2022-12-19T03:58:40.969Z,88.68
2022-12-19T03:59:40.967Z,88.68
2022-12-19T04:00:40.943Z,88.68
2022-12-19T04:01:41.043Z,88.68
2022-12-19T04:02:40.912Z,88.68
2022-12-19T04:03:41.037Z,88.68
2022-12-19T04:04:40.896Z,88.79
2022-12-19T04:05:40.887Z,88.79
2022-12-19T04:06:40.864Z,88.89
2022-12-19T04:07:40.853Z,89.10
2022-12-19T04:08:40.876Z,89.10
2022-12-19T04:09:40.857Z,89.20
2022-12-19T04:10:40.833Z,89.31
2022-12-19T04:11:40.811Z,89.37
2022-12-19T04:12:40.803Z,89.37
2022-12-19T04:13:40.786Z,89.31
2022-12-19T04:14:40.779Z,89.41
2022-12-19T04:15:40.817Z,89.41
2022-12-19T04:16:40.776Z,89.52
2022-12-19T04:17:40.758Z,89.62
2022-12-19T04:18:40.734Z,89.62
2022-12-19T04:19:42.686Z,89.79
2022-12-19T04:20:40.730Z,89.89
2022-12-19T04:21:40.694Z,90.00
2022-12-19T04:22:40.706Z,90.00
2022-12-19T04:23:40.677Z,90.10
2022-12-19T04:24:40.664Z,90.10
2022-12-19T04:25:40.655Z,90.20
2022-12-19T04:26:40.658Z,90.31
2022-12-19T04:27:40.640Z,90.31
2022-12-19T04:28:40.618Z,90.31
2022-12-19T04:29:40.606Z,90.41
2022-12-19T04:30:40.614Z,90.41
2022-12-19T04:31:40.590Z,90.52
2022-12-19T04:32:40.581Z,90.52
2022-12-19T04:33:40.562Z,90.62
2022-12-19T04:34:43.008Z,90.58
2022-12-19T04:35:40.549Z,90.52
2022-12-19T04:36:40.533Z,90.52
2022-12-19T04:37:40.519Z,90.52
2022-12-19T04:38:40.538Z,90.52
2022-12-19T04:39:40.487Z,90.58
2022-12-19T04:40:41.727Z,90.58
2022-12-19T04:41:40.477Z,90.58
2022-12-19T04:42:40.459Z,90.52
2022-12-19T04:43:40.459Z,90.62
2022-12-19T04:44:40.451Z,90.62
2022-12-19T04:45:40.424Z,90.72
2022-12-19T04:46:40.450Z,90.79
2022-12-19T04:47:40.399Z,90.79
2022-12-19T04:48:40.384Z,90.79
2022-12-19T04:49:40.406Z,90.83
2022-12-19T04:50:40.381Z,90.72
2022-12-19T04:51:40.352Z,90.72
2022-12-19T04:52:40.356Z,90.83
2022-12-19T04:53:40.346Z,90.83
2022-12-19T04:54:40.317Z,90.83
2022-12-19T04:55:40.331Z,90.83
2022-12-19T04:56:40.303Z,90.83
2022-12-19T04:57:40.318Z,90.83
2022-12-19T04:58:40.279Z,90.83
2022-12-19T04:59:40.301Z,90.83
2022-12-19T05:00:40.244Z,90.93
2022-12-19T05:01:41.074Z,90.93
2022-12-19T05:02:40.422Z,90.83
2022-12-19T05:03:40.251Z,90.93
2022-12-19T05:04:40.228Z,90.93
2022-12-19T05:05:40.210Z,90.93
2022-12-19T05:06:40.184Z,90.93
2022-12-19T05:07:40.172Z,90.93
2022-12-19T05:08:40.165Z,91.04
2022-12-19T05:09:40.198Z,91.04
2022-12-19T05:10:40.148Z,91.14
2022-12-19T05:11:40.181Z,91.14
2022-12-19T05:12:40.125Z,91.14
2022-12-19T05:13:40.116Z,91.14
2022-12-19T05:14:40.120Z,91.25
2022-12-19T05:15:40.161Z,91.35
2022-12-19T05:16:40.075Z,91.35
2022-12-19T05:17:40.072Z,91.46
2022-12-19T05:18:40.046Z,91.46
2022-12-19T05:19:40.054Z,91.41
2022-12-19T05:20:40.050Z,91.46
2022-12-19T05:21:40.039Z,91.56
2022-12-19T05:22:40.004Z,91.56
2022-12-19T05:23:39.988Z,91.62
2022-12-19T05:24:39.978Z,91.62
2022-12-19T05:25:39.990Z,91.62
2022-12-19T05:26:39.964Z,91.62
2022-12-19T05:27:39.990Z,91.72
2022-12-19T05:28:39.961Z,91.72
2022-12-19T05:29:39.943Z,91.72
2022-12-19T05:30:39.917Z,91.83
2022-12-19T05:31:39.953Z,91.83
2022-12-19T05:32:39.905Z,91.93
2022-12-19T05:33:39.885Z,91.93
2022-12-19T05:34:39.876Z,92.03
2022-12-19T05:35:39.854Z,92.03
2022-12-19T05:36:39.850Z,92.14
2022-12-19T05:37:39.854Z,92.10
2022-12-19T05:38:39.829Z,92.14
2022-12-19T05:39:39.836Z,92.14
2022-12-19T05:40:39.830Z,92.20
2022-12-19T05:41:39.795Z,92.24
2022-12-19T05:42:39.781Z,92.30
2022-12-19T05:43:39.805Z,92.41
2022-12-19T05:44:39.758Z,92.51
2022-12-19T05:45:39.761Z,92.61
2022-12-19T05:46:39.747Z,92.61
2022-12-19T05:47:39.735Z,92.68
2022-12-19T05:48:39.724Z,92.57
2022-12-19T05:49:39.750Z,92.68
2022-12-19T05:50:39.708Z,92.68
2022-12-19T05:51:39.677Z,92.68
2022-12-19T05:52:39.661Z,92.68
2022-12-19T05:53:39.652Z,92.68
2022-12-19T05:54:39.676Z,92.57
2022-12-19T05:55:39.643Z,92.57
2022-12-19T05:56:39.635Z,92.61
2022-12-19T05:57:39.608Z,92.61
2022-12-19T05:58:39.621Z,92.72
2022-12-19T05:59:39.590Z,92.57
2022-12-19T06:00:39.575Z,92.61
2022-12-19T06:01:39.696Z,92.51
2022-12-19T06:02:39.694Z,92.51
2022-12-19T06:03:39.611Z,92.51
2022-12-19T06:04:39.543Z,92.51
2022-12-19T06:05:39.534Z,92.51
2022-12-19T06:06:39.518Z,92.51
2022-12-19T06:07:39.518Z,92.51
2022-12-19T06:08:39.518Z,92.51
2022-12-19T06:09:39.472Z,92.51
2022-12-19T06:10:39.482Z,92.51
2022-12-19T06:11:39.472Z,92.51
2022-12-19T06:12:39.450Z,92.61
2022-12-19T06:13:39.434Z,92.61
2022-12-19T06:14:39.412Z,92.61
2022-12-19T06:15:39.426Z,92.61
2022-12-19T06:16:39.443Z,92.72
2022-12-19T06:17:39.435Z,92.61
2022-12-19T06:18:44.158Z,92.61
2022-12-19T06:19:39.372Z,92.61
2022-12-19T06:20:39.361Z,92.72
2022-12-19T06:21:45.426Z,92.72
2022-12-19T06:22:39.346Z,92.72
2022-12-19T06:23:39.316Z,92.72
2022-12-19T06:24:39.303Z,92.72
2022-12-19T06:25:39.290Z,92.72
2022-12-19T06:26:39.301Z,92.82
2022-12-19T06:27:39.271Z,92.78
2022-12-19T06:28:39.263Z,92.78
2022-12-19T06:29:39.279Z,92.78
2022-12-19T06:30:39.241Z,92.82
2022-12-19T06:31:39.390Z,92.78
2022-12-19T06:32:39.225Z,92.78
2022-12-19T06:33:39.219Z,92.78
2022-12-19T06:35:03.199Z,92.78
2022-12-19T06:35:39.200Z,92.78
2022-12-19T06:36:39.197Z,92.78
2022-12-19T06:37:45.848Z,92.78
2022-12-19T06:38:39.165Z,92.78
2022-12-19T06:39:39.140Z,92.78
2022-12-19T06:40:39.126Z,92.78
2022-12-19T06:41:39.115Z,92.78
2022-12-19T06:42:39.127Z,92.74
2022-12-19T06:43:39.090Z,92.74
2022-12-19T06:44:39.087Z,92.74
2022-12-19T06:45:39.166Z,92.63
2022-12-19T06:46:39.060Z,92.74
2022-12-19T06:47:39.041Z,92.74
2022-12-19T06:48:39.028Z,92.74
2022-12-19T06:49:39.022Z,92.69
2022-12-19T06:50:39.013Z,92.69
2022-12-19T06:51:39.013Z,92.69
2022-12-19T06:52:39.004Z,92.59
2022-12-19T06:53:38.984Z,92.59
2022-12-19T06:54:38.964Z,92.59
2022-12-19T06:55:38.965Z,92.59
2022-12-19T06:56:38.941Z,92.59
2022-12-19T06:57:38.930Z,92.49
2022-12-19T06:58:38.915Z,92.59
2022-12-19T06:59:38.915Z,92.59
2022-12-19T07:00:38.939Z,92.49
2022-12-19T07:01:39.025Z,92.49
2022-12-19T07:02:38.976Z,92.49
2022-12-19T07:03:38.852Z,92.49
2022-12-19T07:04:38.860Z,92.49
2022-12-19T07:05:38.832Z,92.35
2022-12-19T07:06:38.838Z,92.45
2022-12-19T07:07:38.814Z,92.35
2022-12-19T07:08:38.804Z,92.35
2022-12-19T07:09:38.810Z,92.35
2022-12-19T07:10:38.842Z,92.35
2022-12-19T07:11:38.770Z,92.35
2022-12-19T07:12:38.772Z,92.30
2022-12-19T07:13:38.757Z,92.30
2022-12-19T07:14:38.748Z,92.30
2022-12-19T07:15:38.741Z,92.20
2022-12-19T07:16:38.798Z,92.20
2022-12-19T07:17:38.715Z,92.20
2022-12-19T07:18:38.696Z,92.20
2022-12-19T07:19:38.670Z,92.10
2022-12-19T07:20:43.318Z,92.10
2022-12-19T07:21:38.660Z,92.10
2022-12-19T07:22:38.681Z,92.10
2022-12-19T07:23:38.641Z,92.10
2022-12-19T07:24:38.634Z,92.10
2022-12-19T07:25:38.608Z,91.95
2022-12-19T07:26:38.592Z,91.99
2022-12-19T07:27:38.583Z,91.89
2022-12-19T07:28:38.584Z,91.78
2022-12-19T07:29:38.571Z,91.78
2022-12-19T07:30:38.565Z,91.78
2022-12-19T07:31:38.592Z,91.78
2022-12-19T07:32:38.536Z,91.68
2022-12-19T07:33:38.542Z,91.78
2022-12-19T07:34:38.512Z,91.89
2022-12-19T07:35:38.497Z,91.89
2022-12-19T07:36:38.476Z,91.89
2022-12-19T07:37:38.522Z,91.89
2022-12-19T07:38:38.465Z,91.89
2022-12-19T07:39:38.460Z,91.89
2022-12-19T07:40:38.439Z,91.89
2022-12-19T07:41:38.437Z,91.99
2022-12-19T07:42:38.422Z,92.05
2022-12-19T07:43:38.454Z,92.05
2022-12-19T07:44:38.416Z,92.05
2022-12-19T07:45:38.449Z,91.95
2022-12-19T07:46:38.372Z,91.89
2022-12-19T07:47:38.366Z,91.89
2022-12-19T07:48:38.340Z,91.89
2022-12-19T07:49:38.376Z,91.89
2022-12-19T07:50:38.343Z,91.89
2022-12-19T07:51:38.357Z,91.99
2022-12-19T07:52:38.303Z,91.99
2022-12-19T07:53:38.289Z,91.99
2022-12-19T07:54:38.294Z,91.95
2022-12-19T07:55:38.269Z,91.95
2022-12-19T07:56:38.280Z,91.99
2022-12-19T07:57:38.260Z,91.99
2022-12-19T07:58:38.247Z,91.99
2022-12-19T07:59:39.385Z,92.05
2022-12-19T08:00:38.208Z,92.05
2022-12-19T08:01:38.300Z,92.16
2022-12-19T08:02:38.376Z,92.16
2022-12-19T08:03:38.177Z,92.05
2022-12-19T08:04:38.187Z,92.05
2022-12-19T08:05:38.173Z,92.05
2022-12-19T08:06:41.272Z,91.95
2022-12-19T08:07:38.172Z,91.95
2022-12-19T08:08:38.135Z,91.95
2022-12-19T08:09:38.154Z,91.95
2022-12-19T08:10:38.101Z,91.85
2022-12-19T08:11:38.097Z,91.85
2022-12-19T08:12:38.083Z,91.85
2022-12-19T08:13:43.273Z,91.85
2022-12-19T08:14:38.074Z,91.85
2022-12-19T08:15:38.041Z,91.74
2022-12-19T08:17:11.107Z,91.74
2022-12-19T08:17:38.136Z,91.74
2022-12-19T08:18:38.032Z,91.74
2022-12-19T08:19:38.001Z,91.64
2022-12-19T08:20:38.000Z,91.60
2022-12-19T08:21:37.986Z,91.64
2022-12-19T08:22:37.994Z,91.53
2022-12-19T08:23:37.980Z,91.49
2022-12-19T08:24:37.964Z,91.49
2022-12-19T08:25:37.955Z,91.39
2022-12-19T08:26:41.831Z,91.39
2022-12-19T08:27:37.925Z,91.39
2022-12-19T08:28:37.889Z,91.39
2022-12-19T08:29:37.887Z,91.39
2022-12-19T08:30:37.985Z,91.49
2022-12-19T08:31:37.878Z,91.49
2022-12-19T08:32:37.903Z,91.49
2022-12-19T08:33:37.862Z,91.39
2022-12-19T08:34:37.854Z,91.39
2022-12-19T08:35:37.838Z,91.39
2022-12-19T08:36:37.801Z,91.39
2022-12-19T08:37:37.798Z,91.35
2022-12-19T08:38:37.817Z,91.35
2022-12-19T08:39:37.831Z,91.35
2022-12-19T08:40:40.506Z,91.35
2022-12-19T08:41:37.763Z,91.24
2022-12-19T08:42:37.753Z,91.24
2022-12-19T08:43:37.770Z,91.14
2022-12-19T08:44:37.706Z,91.14
2022-12-19T08:45:37.771Z,91.14
2022-12-19T08:46:37.793Z,91.14
2022-12-19T08:47:37.691Z,91.14
2022-12-19T08:48:37.676Z,91.14
2022-12-19T08:49:37.683Z,91.03
2022-12-19T08:50:37.661Z,91.03
2022-12-19T08:51:37.641Z,91.14
2022-12-19T08:52:37.628Z,91.14
2022-12-19T08:53:37.665Z,91.14
2022-12-19T08:54:37.636Z,91.03
2022-12-19T08:55:37.623Z,91.14
2022-12-19T08:56:37.604Z,91.14
2022-12-19T08:57:37.595Z,91.14
2022-12-19T08:58:37.589Z,91.14
2022-12-19T08:59:37.567Z,91.20
2022-12-19T09:00:37.553Z,91.20
2022-12-19T09:01:37.580Z,91.20
2022-12-19T09:02:37.773Z,91.20
2022-12-19T09:03:56.173Z,91.09
2022-12-19T09:05:59.259Z,91.09
2022-12-19T09:06:17.157Z,91.09
2022-12-19T09:06:44.294Z,91.09
2022-12-19T09:07:44.181Z,91.09
2022-12-19T09:08:44.178Z,91.09
2022-12-19T09:09:44.234Z,91.09
2022-12-19T09:10:44.202Z,91.20
2022-12-19T09:11:47.630Z,91.20
2022-12-19T09:12:44.132Z,91.20
2022-12-19T09:13:44.142Z,91.20
2022-12-19T09:14:44.225Z,91.30
2022-12-19T09:15:44.117Z,91.26
2022-12-19T09:16:44.113Z,91.26
2022-12-19T09:17:44.082Z,91.26
2022-12-19T09:18:48.417Z,91.36
2022-12-19T09:19:44.515Z,91.26
2022-12-19T09:20:44.051Z,91.26
2022-12-19T09:21:44.063Z,91.16
2022-12-19T09:22:44.019Z,91.05
2022-12-19T09:23:44.079Z,91.16
2022-12-19T09:24:44.043Z,91.16
2022-12-19T09:25:43.986Z,91.01
2022-12-19T09:26:44.005Z,90.91
2022-12-19T09:28:17.932Z,91.01
2022-12-19T09:28:43.968Z,91.01
2022-12-19T09:29:43.961Z,91.01
2022-12-19T09:30:43.952Z,91.01
2022-12-19T09:31:43.916Z,90.97
2022-12-19T09:32:43.906Z,90.97
2022-12-19T09:33:44.222Z,90.97
2022-12-19T09:34:43.885Z,90.87
2022-12-19T09:35:43.894Z,90.87
2022-12-19T09:36:43.852Z,90.87
2022-12-19T09:37:43.881Z,90.87
2022-12-19T09:38:43.838Z,90.77
2022-12-19T09:39:43.820Z,90.77
2022-12-19T09:40:43.806Z,90.77
2022-12-19T09:41:43.826Z,90.77
2022-12-19T09:42:43.802Z,90.77
2022-12-19T09:43:43.833Z,90.77
2022-12-19T09:44:43.767Z,90.77
2022-12-19T09:45:43.764Z,90.77
2022-12-19T09:46:43.852Z,90.77
2022-12-19T09:47:43.741Z,90.77
2022-12-19T09:48:45.245Z,90.77
2022-12-19T09:49:43.723Z,90.62
2022-12-19T09:50:43.713Z,90.62
2022-12-19T09:51:43.701Z,90.52
2022-12-19T09:52:43.700Z,90.41
2022-12-19T09:53:43.672Z,90.31
2022-12-19T09:54:43.651Z,90.20
2022-12-19T09:55:43.649Z,90.20
2022-12-19T09:56:45.750Z,90.20
2022-12-19T09:57:43.628Z,90.10
2022-12-19T09:58:43.613Z,90.00
2022-12-19T09:59:49.603Z,90.00
2022-12-19T10:00:43.611Z,89.89
2022-12-19T10:01:43.729Z,89.89
2022-12-19T10:02:43.838Z,89.89
2022-12-19T10:03:43.620Z,89.89
2022-12-19T10:04:43.554Z,89.89
2022-12-19T10:06:16.703Z,89.89
2022-12-19T10:07:40.077Z,89.89
2022-12-19T10:08:08.361Z,89.89
2022-12-19T10:09:34.061Z,89.89
2022-12-19T10:12:39.944Z,89.89
2022-12-19T10:12:53.155Z,90.00
2022-12-19T10:13:00.079Z,89.89
2022-12-19T10:13:59.573Z,89.89
2022-12-19T10:14:59.555Z,89.89
2022-12-19T10:16:00.683Z,89.89
2022-12-19T10:17:22.988Z,90.00
2022-12-19T10:17:59.530Z,90.00
2022-12-19T10:18:59.532Z,89.89
2022-12-19T10:19:59.522Z,90.00
2022-12-19T10:20:59.488Z,89.95
2022-12-19T10:22:17.718Z,89.95
2022-12-19T10:22:59.490Z,89.95
2022-12-19T10:23:59.485Z,89.95
2022-12-19T10:25:08.292Z,89.95
2022-12-19T10:25:59.451Z,89.95
2022-12-19T10:26:59.440Z,89.86
2022-12-19T10:28:00.560Z,89.86
2022-12-19T10:28:59.439Z,89.89
2022-12-19T10:29:59.391Z,89.89
2022-12-19T10:31:02.634Z,89.89
2022-12-19T10:31:59.499Z,90.00
2022-12-19T10:32:59.403Z,90.00
2022-12-19T10:33:59.374Z,90.10
2022-12-19T10:34:59.424Z,90.10
2022-12-19T10:36:02.331Z,90.10
2022-12-19T10:37:27.052Z,90.20
2022-12-19T10:37:59.319Z,90.20
2022-12-19T10:38:59.311Z,90.10
2022-12-19T10:39:59.292Z,90.10
2022-12-19T10:40:59.295Z,90.06
2022-12-19T10:41:59.313Z,90.00
2022-12-19T10:42:59.270Z,89.89
2022-12-19T10:43:59.271Z,89.89
2022-12-19T10:44:59.241Z,89.79
2022-12-19T10:45:59.413Z,89.79
2022-12-19T10:46:59.283Z,89.79
2022-12-19T10:47:59.186Z,89.69
2022-12-19T10:48:59.197Z,89.69
2022-12-19T10:50:03.879Z,89.69
2022-12-19T10:51:02.112Z,89.69
2022-12-19T10:51:59.184Z,89.69
2022-12-19T10:52:59.183Z,89.59
2022-12-19T10:53:59.145Z,89.38
2022-12-19T10:54:59.169Z,89.23
2022-12-19T10:55:59.128Z,89.13
2022-12-19T10:56:59.104Z,89.03
2022-12-19T10:57:59.088Z,89.13
2022-12-19T10:58:59.090Z,89.13
2022-12-19T10:59:59.102Z,89.03
2022-12-19T11:00:59.115Z,88.92
2022-12-19T11:02:00.654Z,88.82
2022-12-19T11:02:59.158Z,88.71
2022-12-19T11:03:59.045Z,88.71
2022-12-19T11:04:59.165Z,88.61
2022-12-19T11:05:59.048Z,88.65
2022-12-19T11:06:58.976Z,88.65
2022-12-19T11:07:58.998Z,88.65
2022-12-19T11:08:59.013Z,88.61
2022-12-19T11:10:43.483Z,88.61
2022-12-19T11:16:47.266Z,88.61
2022-12-19T11:29:37.047Z,88.51
2022-12-19T11:33:14.892Z,88.06
2022-12-19T11:34:14.755Z,88.10
2022-12-19T11:35:14.750Z,88.10
2022-12-19T11:36:14.737Z,88.06
2022-12-19T11:37:14.725Z,88.06
2022-12-19T11:38:14.702Z,88.06
2022-12-19T11:39:14.691Z,87.95
2022-12-19T11:40:14.756Z,87.95
2022-12-19T11:41:14.675Z,87.95
2022-12-19T11:42:14.663Z,87.85
2022-12-19T11:44:14.652Z,87.85
2022-12-19T11:45:14.635Z,87.85
2022-12-19T11:46:21.177Z,87.85
2022-12-19T11:47:14.618Z,87.54
2022-12-19T11:48:14.592Z,87.44
2022-12-19T11:49:14.583Z,87.34
2022-12-19T11:50:14.610Z,87.23
2022-12-19T11:51:14.578Z,87.23
2022-12-19T11:52:36.787Z,87.13
2022-12-19T11:53:18.895Z,87.13
2022-12-19T11:54:14.524Z,87.13
2022-12-19T11:55:14.521Z,87.02
2022-12-19T11:56:16.245Z,87.02
2022-12-19T11:57:14.523Z,87.02
2022-12-19T11:58:14.538Z,86.92
2022-12-19T11:59:14.486Z,86.82
2022-12-19T12:00:14.481Z,86.71
2022-12-19T12:01:14.440Z,86.61
2022-12-19T12:02:14.440Z,86.47
2022-12-19T12:03:14.528Z,86.47
2022-12-19T12:04:14.741Z,86.47
2022-12-19T12:05:14.403Z,86.47
2022-12-19T12:06:14.400Z,86.36
2022-12-19T12:07:51.726Z,86.26
2022-12-19T12:10:06.004Z,86.16
2022-12-19T12:27:26.100Z,86.16
2022-12-19T12:35:46.913Z,84.78
2022-12-19T12:38:24.823Z,84.33
2022-12-19T12:39:03.873Z,84.12
2022-12-19T12:40:03.721Z,83.91
2022-12-19T12:41:03.744Z,83.81
2022-12-19T12:42:03.703Z,83.61
2022-12-19T12:43:03.671Z,83.71
2022-12-19T12:44:03.703Z,83.91
2022-12-19T12:45:03.686Z,83.71
2022-12-19T12:46:03.779Z,83.56
2022-12-19T12:47:03.695Z,83.56
2022-12-19T12:48:03.685Z,83.36
2022-12-19T12:49:03.633Z,83.36
2022-12-19T12:50:03.616Z,83.26
2022-12-19T12:51:03.589Z,83.15
2022-12-19T12:52:03.637Z,83.15
2022-12-19T12:53:03.568Z,83.05
2022-12-19T12:54:03.628Z,83.15
2022-12-19T12:55:03.545Z,83.05
2022-12-19T12:56:05.670Z,82.95
2022-12-19T12:57:03.537Z,82.95
2022-12-19T12:58:03.516Z,82.81
2022-12-19T12:59:03.495Z,82.60
2022-12-19T13:00:03.519Z,82.40
2022-12-19T13:01:03.533Z,82.40
2022-12-19T13:02:03.675Z,82.40
2022-12-19T13:03:03.681Z,82.40
2022-12-19T13:04:03.479Z,82.09
2022-12-19T13:05:03.439Z,82.09
2022-12-19T13:06:03.437Z,82.09
2022-12-19T13:07:03.406Z,82.19
2022-12-19T13:08:03.438Z,82.23
2022-12-19T13:09:03.389Z,82.02
2022-12-19T13:10:03.381Z,82.23
2022-12-19T13:11:03.370Z,82.33
2022-12-19T13:12:03.376Z,82.43
2022-12-19T13:13:04.348Z,82.33
2022-12-19T13:14:03.332Z,82.12
2022-12-19T13:15:03.371Z,82.12
2022-12-19T13:16:03.327Z,82.02
2022-12-19T13:17:03.469Z,81.92
2022-12-19T13:18:03.294Z,81.92
2022-12-19T13:19:03.318Z,82.02
2022-12-19T13:20:03.272Z,81.92
2022-12-19T13:21:03.272Z,81.81
2022-12-19T13:22:03.242Z,81.92
2022-12-19T13:23:03.273Z,82.02
2022-12-19T13:24:03.225Z,82.02
2022-12-19T13:25:03.240Z,82.12
2022-12-19T13:26:03.204Z,82.02
2022-12-19T13:27:03.204Z,82.02
2022-12-19T13:28:03.208Z,82.02
2022-12-19T13:29:03.193Z,82.02
2022-12-19T13:30:03.159Z,82.02
2022-12-19T13:31:18.576Z,82.12
2022-12-19T13:32:03.284Z,82.12
2022-12-19T13:33:03.150Z,82.02
2022-12-19T13:34:03.113Z,81.92
2022-12-19T13:35:42.026Z,81.92
2022-12-19T13:40:08.700Z,82.12
2022-12-19T13:40:20.506Z,82.02
2022-12-19T13:41:01.515Z,82.06
2022-12-19T13:42:01.500Z,82.23
2022-12-19T13:43:10.628Z,82.26
2022-12-19T13:44:01.495Z,82.26
2022-12-19T13:45:01.464Z,82.06